Time;durP1;ratioP1;P1;durP2;ratioP2;P2;SDS_P1;SDS_P2;PMS_P1;PMS_P2;Temp;Humidity;BMP_temperature;BMP_pressure;BME280_temperature;BME280_humidity;BME280_pressure;Samples;Min_cycle;Max_cycle;Signal;HPM_P1;HPM_P2
2022/10/02 00:00:23;;;;;;;5.28;1.55;;;;;;;;;;4997035;28;20045;-70
2022/10/02 00:02:55;;;;;;;4.32;1.35;;;;;;;;;;5015542;28;20026;-69
2022/10/02 00:05:23;;;;;;;2.83;1.33;;;;;;;;;;5015581;28;20028;-69
2022/10/02 00:07:50;;;;;;;3.53;1.08;;;;;;;;;;5015396;28;20398;-70
2022/10/02 00:10:22;;;;;;;4.00;0.93;;;;;;;;;;5015456;28;20022;-70
2022/10/02 00:12:51;;;;;;;4.75;1.00;;;;;;;;;;5032755;28;20040;-70
2022/10/02 00:15:19;;;;;;;3.33;1.02;;;;;;;;;;5034651;28;20025;-70
2022/10/02 00:17:47;;;;;;;5.35;1.10;;;;;;;;;;5034981;28;20505;-70
2022/10/02 00:20:14;;;;;;;1.30;0.95;;;;;;;;;;5035168;28;20047;-71
2022/10/02 00:23:04;;;;;;;2.40;0.95;;;;;;;;;;5034949;28;20021;-70
2022/10/02 00:25:36;;;;;;;2.03;0.90;;;;;;;;;;5032280;28;20440;-70
2022/10/02 00:28:21;;;;;;;3.22;1.23;;;;;;;;;;5034854;28;20025;-69
2022/10/02 00:30:56;;;;;;;5.30;1.30;;;;;;;;;;5034510;28;20026;-70
2022/10/02 00:33:32;;;;;;;1.70;1.17;;;;;;;;;;5034886;28;20037;-70
2022/10/02 00:36:11;;;;;;;3.67;1.20;;;;;;;;;;5035047;28;20022;-70
2022/10/02 00:38:43;;;;;;;3.33;1.30;;;;;;;;;;5035043;28;20032;-70
2022/10/02 00:41:20;;;;;;;2.13;1.13;;;;;;;;;;5034425;28;20053;-70
2022/10/02 00:44:03;;;;;;;2.65;1.48;;;;;;;;;;5034626;28;20034;-70
2022/10/02 00:46:43;;;;;;;3.90;1.38;;;;;;;;;;5034831;28;20075;-70
2022/10/02 00:49:16;;;;;;;3.42;1.50;;;;;;;;;;5034566;28;20029;-70
2022/10/02 00:52:01;;;;;;;2.17;1.15;;;;;;;;;;5034371;28;20026;-70
2022/10/02 00:54:28;;;;;;;3.45;1.45;;;;;;;;;;5034208;28;20035;-70
2022/10/02 00:56:54;;;;;;;5.07;1.70;;;;;;;;;;5034310;28;20036;-70
2022/10/02 00:59:29;;;;;;;4.05;2.13;;;;;;;;;;5033846;28;20491;-70
2022/10/02 01:02:05;;;;;;;2.33;1.70;;;;;;;;;;5033081;28;20022;-70
2022/10/02 01:04:36;;;;;;;4.55;2.25;;;;;;;;;;5034323;28;20032;-70
2022/10/02 01:07:03;;;;;;;9.18;1.65;;;;;;;;;;5034331;28;20029;-70
2022/10/02 01:09:30;;;;;;;4.20;1.95;;;;;;;;;;5034218;28;20034;-70
2022/10/02 01:11:56;;;;;;;4.85;1.88;;;;;;;;;;5033492;28;20510;-70
2022/10/02 01:14:31;;;;;;;3.42;1.50;;;;;;;;;;5034104;28;20032;-70
2022/10/02 01:16:57;;;;;;;2.40;1.58;;;;;;;;;;5034270;28;20040;-70
2022/10/02 01:19:35;;;;;;;4.10;1.85;;;;;;;;;;5033781;28;20033;-70
2022/10/02 01:22:15;;;;;;;3.35;1.58;;;;;;;;;;5034049;28;20034;-70
2022/10/02 01:24:46;;;;;;;2.92;1.70;;;;;;;;;;5033829;28;20021;-70
2022/10/02 01:27:12;;;;;;;8.32;1.80;;;;;;;;;;5033319;28;20025;-70
2022/10/02 01:29:39;;;;;;;5.63;1.80;;;;;;;;;;5033662;28;20044;-71
2022/10/02 01:32:05;;;;;;;5.03;1.13;;;;;;;;;;5034015;28;20037;-70
2022/10/02 01:34:32;;;;;;;3.20;1.52;;;;;;;;;;5033704;28;20013;-70
2022/10/02 01:36:59;;;;;;;4.53;1.33;;;;;;;;;;5033642;28;20030;-70
2022/10/02 01:39:25;;;;;;;4.53;1.42;;;;;;;;;;5033528;28;20067;-70
2022/10/02 01:41:54;;;;;;;2.97;1.45;;;;;;;;;;5033225;28;20387;-70
2022/10/02 01:44:21;;;;;;;4.75;1.42;;;;;;;;;;5033383;28;20025;-70
2022/10/02 01:46:59;;;;;;;3.65;1.27;;;;;;;;;;5033345;28;20409;-70
2022/10/02 01:49:26;;;;;;;3.72;1.30;;;;;;;;;;5033415;28;20033;-70
2022/10/02 01:51:52;;;;;;;6.53;1.50;;;;;;;;;;5033540;28;20409;-72
2022/10/02 01:54:31;;;;;;;3.10;1.10;;;;;;;;;;5032143;28;20372;-72
2022/10/02 01:57:15;;;;;;;3.42;1.30;;;;;;;;;;5033205;28;20018;-72
2022/10/02 01:59:48;;;;;;;3.75;1.50;;;;;;;;;;5033142;28;20375;-72
2022/10/02 02:02:23;;;;;;;5.13;1.52;;;;;;;;;;5033291;28;20024;-70
2022/10/02 02:04:53;;;;;;;6.03;1.95;;;;;;;;;;5033225;28;20021;-70
2022/10/02 02:07:29;;;;;;;2.67;1.50;;;;;;;;;;5033009;28;20524;-70
2022/10/02 02:09:56;;;;;;;2.28;1.23;;;;;;;;;;5033200;28;20025;-70
2022/10/02 02:12:33;;;;;;;3.72;1.23;;;;;;;;;;5032403;28;20037;-70
2022/10/02 02:15:03;;;;;;;2.22;1.33;;;;;;;;;;5032930;28;20509;-70
2022/10/02 02:17:30;;;;;;;4.30;1.43;;;;;;;;;;5033325;28;20036;-70
2022/10/02 02:20:00;;;;;;;3.85;1.50;;;;;;;;;;5032653;28;20282;-70
2022/10/02 02:22:29;;;;;;;4.20;1.43;;;;;;;;;;5032742;28;20051;-70
2022/10/02 02:25:01;;;;;;;4.22;1.33;;;;;;;;;;5031952;28;20264;-70
2022/10/02 02:27:32;;;;;;;1.77;1.30;;;;;;;;;;5032821;28;20075;-70
2022/10/02 02:30:04;;;;;;;3.38;1.27;;;;;;;;;;5032851;28;20018;-70
2022/10/02 02:32:33;;;;;;;3.38;2.00;;;;;;;;;;5032517;28;20026;-70
2022/10/02 02:35:08;;;;;;;2.13;1.30;;;;;;;;;;5032431;28;20025;-70
2022/10/02 02:37:37;;;;;;;1.83;1.15;;;;;;;;;;5032544;28;20026;-70
2022/10/02 02:40:08;;;;;;;2.58;1.33;;;;;;;;;;5032071;28;20444;-70
2022/10/02 02:42:41;;;;;;;2.28;1.42;;;;;;;;;;5032605;28;20022;-70
2022/10/02 02:45:14;;;;;;;5.25;1.67;;;;;;;;;;5032542;28;20028;-70
2022/10/02 02:47:46;;;;;;;3.92;1.60;;;;;;;;;;5032543;28;20518;-69
2022/10/02 02:50:21;;;;;;;3.17;1.30;;;;;;;;;;5032645;28;20029;-70
2022/10/02 02:52:50;;;;;;;2.50;1.40;;;;;;;;;;5032444;28;20036;-70
2022/10/02 02:55:22;;;;;;;3.50;1.58;;;;;;;;;;5032136;28;20035;-70
2022/10/02 02:57:49;;;;;;;2.55;1.52;;;;;;;;;;5031071;28;20029;-70
2022/10/02 03:00:15;;;;;;;2.72;1.70;;;;;;;;;;5031264;28;20033;-70
2022/10/02 03:02:42;;;;;;;9.05;1.70;;;;;;;;;;5032071;28;20021;-70
2022/10/02 03:05:15;;;;;;;3.58;1.80;;;;;;;;;;5032283;28;20021;-70
2022/10/02 03:07:55;;;;;;;4.63;1.80;;;;;;;;;;5032191;28;20030;-69
2022/10/02 03:10:27;;;;;;;4.93;1.90;;;;;;;;;;5031817;28;20035;-69
2022/10/02 03:13:03;;;;;;;5.22;2.30;;;;;;;;;;5031868;28;20038;-70
2022/10/02 03:15:36;;;;;;;2.80;1.98;;;;;;;;;;5031740;28;20034;-70
2022/10/02 03:18:11;;;;;;;3.20;1.75;;;;;;;;;;5032022;28;20116;-70
2022/10/02 03:20:40;;;;;;;4.88;1.90;;;;;;;;;;5031966;28;20033;-70
2022/10/02 03:23:07;;;;;;;3.20;1.55;;;;;;;;;;5031492;28;20028;-70
2022/10/02 03:25:36;;;;;;;3.30;1.85;;;;;;;;;;5032050;28;20382;-70
2022/10/02 03:28:17;;;;;;;4.85;2.00;;;;;;;;;;5031757;28;20022;-70
2022/10/02 03:30:44;;;;;;;2.13;1.63;;;;;;;;;;5031777;28;20494;-70
2022/10/02 03:33:12;;;;;;;4.13;1.85;;;;;;;;;;5031813;28;20025;-70
2022/10/02 03:35:39;;;;;;;3.65;2.00;;;;;;;;;;5032359;28;20486;-70
2022/10/02 03:38:07;;;;;;;5.60;1.77;;;;;;;;;;5035513;28;20022;-70
2022/10/02 03:40:33;;;;;;;4.95;1.83;;;;;;;;;;5035687;28;20029;-70
2022/10/02 03:43:00;;;;;;;4.82;1.60;;;;;;;;;;5036000;28;20033;-69
2022/10/02 03:45:27;;;;;;;2.47;1.40;;;;;;;;;;5035816;28;20027;-71
2022/10/02 03:47:53;;;;;;;3.20;1.60;;;;;;;;;;5035677;28;20037;-70
2022/10/02 03:50:20;;;;;;;4.72;1.73;;;;;;;;;;5035536;28;20030;-70
2022/10/02 03:52:48;;;;;;;4.85;1.60;;;;;;;;;;5035340;28;20025;-70
2022/10/02 03:55:17;;;;;;;5.35;1.67;;;;;;;;;;5035458;28;20028;-70
2022/10/02 03:57:44;;;;;;;5.78;1.80;;;;;;;;;;5035399;28;20025;-70
2022/10/02 04:00:12;;;;;;;5.95;1.67;;;;;;;;;;5035375;28;20037;-70
2022/10/02 04:02:52;;;;;;;4.07;1.50;;;;;;;;;;5035287;28;20497;-70
2022/10/02 04:05:41;;;;;;;3.28;1.40;;;;;;;;;;5035251;28;20497;-69
2022/10/02 04:08:17;;;;;;;3.03;1.50;;;;;;;;;;5032013;28;20034;-69
2022/10/02 04:10:59;;;;;;;5.07;1.60;;;;;;;;;;5034991;28;20032;-70
2022/10/02 04:13:37;;;;;;;3.83;1.83;;;;;;;;;;5035095;28;20429;-70
2022/10/02 04:16:09;;;;;;;3.63;1.65;;;;;;;;;;5050664;28;20051;-69
2022/10/02 04:19:14;;;;;;;7.82;2.38;;;;;;;;;;5035353;28;20031;-70
2022/10/02 04:21:41;;;;;;;7.60;2.47;;;;;;;;;;5012795;28;20092;-70
2022/10/02 04:24:16;;;;;;;6.80;2.78;;;;;;;;;;5013050;28;20429;-70
2022/10/02 04:26:46;;;;;;;7.95;2.83;;;;;;;;;;5013029;28;20032;-70
2022/10/02 04:29:12;;;;;;;4.90;2.70;;;;;;;;;;5012857;28;20372;-70
2022/10/02 04:31:39;;;;;;;8.43;3.03;;;;;;;;;;5013008;28;20253;-70
2022/10/02 04:34:07;;;;;;;3.65;3.25;;;;;;;;;;5012777;28;20034;-70
2022/10/02 04:36:33;;;;;;;4.00;3.60;;;;;;;;;;5012422;28;20030;-70
2022/10/02 04:39:22;;;;;;;6.05;3.42;;;;;;;;;;5012979;28;20037;-70
2022/10/02 04:41:54;;;;;;;7.13;3.70;;;;;;;;;;5012721;28;20045;-70
2022/10/02 04:44:23;;;;;;;8.50;3.20;;;;;;;;;;5008507;28;20481;-70
2022/10/02 04:46:49;;;;;;;5.07;3.72;;;;;;;;;;4992623;28;20042;-70
2022/10/02 04:49:38;;;;;;;8.43;4.63;;;;;;;;;;4993095;28;20022;-70
2022/10/02 04:52:17;;;;;;;7.80;4.25;;;;;;;;;;5000196;28;20501;-70
2022/10/02 04:55:15;;;;;;;6.70;4.50;;;;;;;;;;5034378;28;20025;-70
2022/10/02 04:57:44;;;;;;;6.20;4.32;;;;;;;;;;5012357;28;20042;-69
2022/10/02 05:00:13;;;;;;;7.88;4.50;;;;;;;;;;5012271;28;20414;-69
2022/10/02 05:02:48;;;;;;;5.45;4.40;;;;;;;;;;5012576;28;20038;-70
2022/10/02 05:05:21;;;;;;;6.28;3.90;;;;;;;;;;5011839;28;20538;-70
2022/10/02 05:07:53;;;;;;;4.90;3.35;;;;;;;;;;5012125;28;20032;-70
2022/10/02 05:10:35;;;;;;;3.42;3.13;;;;;;;;;;5012430;28;20046;-69
2022/10/02 05:13:16;;;;;;;3.88;2.58;;;;;;;;;;5011875;28;20076;-68
2022/10/02 05:15:45;;;;;;;6.13;4.05;;;;;;;;;;5012106;28;20037;-70
2022/10/02 05:18:15;;;;;;;6.05;3.25;;;;;;;;;;5011938;28;20065;-69
2022/10/02 05:20:44;;;;;;;3.60;3.30;;;;;;;;;;5011542;28;20067;-70
2022/10/02 05:23:19;;;;;;;7.95;3.60;;;;;;;;;;5012043;28;20060;-70
2022/10/02 05:25:48;;;;;;;7.45;5.60;;;;;;;;;;5011823;28;20526;-70
2022/10/02 05:28:30;;;;;;;8.45;4.28;;;;;;;;;;5012016;28;20022;-70
2022/10/02 05:31:06;;;;;;;6.97;4.65;;;;;;;;;;5012105;28;20040;-70
2022/10/02 05:33:48;;;;;;;6.65;4.45;;;;;;;;;;5025054;28;20040;-69
2022/10/02 05:36:29;;;;;;;10.52;4.05;;;;;;;;;;5033617;28;20385;-70
2022/10/02 05:39:05;;;;;;;6.07;4.00;;;;;;;;;;5033674;28;20428;-72
2022/10/02 05:41:32;;;;;;;5.03;3.10;;;;;;;;;;5033298;28;20098;-71
2022/10/02 05:44:07;;;;;;;8.98;3.15;;;;;;;;;;5033317;28;20024;-73
2022/10/02 05:46:41;;;;;;;3.70;3.13;;;;;;;;;;5033813;28;20032;-72
2022/10/02 05:49:18;;;;;;;8.85;3.40;;;;;;;;;;5033346;28;20406;-72
2022/10/02 05:51:54;;;;;;;4.18;2.90;;;;;;;;;;5033465;28;20021;-72
2022/10/02 05:54:40;;;;;;;6.32;2.28;;;;;;;;;;5033455;28;20516;-72
2022/10/02 05:57:07;;;;;;;2.50;2.28;;;;;;;;;;5033691;28;20040;-72
2022/10/02 05:59:46;;;;;;;4.03;2.80;;;;;;;;;;5032504;28;20393;-72
2022/10/02 06:02:36;;;;;;;5.80;2.42;;;;;;;;;;5033289;28;20027;-72
2022/10/02 06:05:06;;;;;;;3.30;2.50;;;;;;;;;;5030374;28;20037;-72
2022/10/02 06:07:33;;;;;;;3.40;3.10;;;;;;;;;;5033281;28;20118;-72
2022/10/02 06:10:19;;;;;;;3.67;2.35;;;;;;;;;;5033290;28;20025;-72
2022/10/02 06:12:56;;;;;;;4.50;1.95;;;;;;;;;;5032773;28;20037;-70
2022/10/02 06:15:30;;;;;;;3.30;2.20;;;;;;;;;;5032914;28;20033;-70
2022/10/02 06:18:08;;;;;;;4.55;4.15;;;;;;;;;;5032261;28;20031;-70
2022/10/02 06:20:43;;;;;;;7.03;2.50;;;;;;;;;;5032623;28;20041;-70
2022/10/02 06:23:13;;;;;;;5.50;2.88;;;;;;;;;;5032452;28;20026;-70
2022/10/02 06:25:45;;;;;;;6.22;2.92;;;;;;;;;;5033044;28;20208;-70
2022/10/02 06:28:19;;;;;;;5.57;2.92;;;;;;;;;;5032700;28;20036;-70
2022/10/02 06:31:14;;;;;;;3.38;2.60;;;;;;;;;;5032339;28;20425;-70
2022/10/02 06:33:41;;;;;;;4.32;2.92;;;;;;;;;;5010679;28;20560;-70
2022/10/02 06:36:22;;;;;;;3.75;3.05;;;;;;;;;;5010788;28;20033;-70
2022/10/02 06:39:07;;;;;;;4.82;2.17;;;;;;;;;;5010544;28;20034;-72
2022/10/02 06:41:34;;;;;;;2.13;1.63;;;;;;;;;;5010485;28;20037;-72
2022/10/02 06:44:00;;;;;;;4.60;1.90;;;;;;;;;;5009181;28;20038;-72
2022/10/02 06:46:45;;;;;;;3.50;1.40;;;;;;;;;;4990544;28;20023;-70
2022/10/02 06:49:23;;;;;;;4.55;1.50;;;;;;;;;;4997111;28;20026;-70
2022/10/02 06:52:01;;;;;;;2.65;1.35;;;;;;;;;;5010374;28;20176;-70
2022/10/02 06:54:52;;;;;;;4.15;2.30;;;;;;;;;;5010528;28;20030;-70
2022/10/02 06:57:27;;;;;;;2.72;2.10;;;;;;;;;;5010233;28;20056;-70
2022/10/02 06:59:54;;;;;;;4.13;2.40;;;;;;;;;;5010496;28;20195;-70
2022/10/02 07:02:32;;;;;;;4.22;1.90;;;;;;;;;;5009932;28;20036;-70
2022/10/02 07:05:17;;;;;;;5.22;2.38;;;;;;;;;;5010280;28;20036;-70
2022/10/02 07:07:43;;;;;;;3.42;2.20;;;;;;;;;;4993908;28;20279;-70
2022/10/02 07:10:10;;;;;;;2.97;2.05;;;;;;;;;;5021824;28;20036;-70
2022/10/02 07:12:55;;;;;;;9.07;2.63;;;;;;;;;;5031770;28;20468;-70
2022/10/02 07:15:25;;;;;;;4.25;2.22;;;;;;;;;;5032000;28;20102;-70
2022/10/02 07:18:01;;;;;;;3.83;1.92;;;;;;;;;;5032119;28;20506;-69
2022/10/02 07:20:38;;;;;;;3.25;2.17;;;;;;;;;;5031860;28;20401;-70
2022/10/02 07:23:12;;;;;;;7.55;2.55;;;;;;;;;;5031978;28;20024;-70
2022/10/02 07:25:57;;;;;;;3.20;2.47;;;;;;;;;;5031922;28;20029;-70
2022/10/02 07:28:35;;;;;;;9.13;2.70;;;;;;;;;;5047352;28;20014;-70
2022/10/02 07:31:05;;;;;;;4.20;3.05;;;;;;;;;;5031776;28;20029;-70
2022/10/02 07:33:35;;;;;;;4.57;2.90;;;;;;;;;;5031923;28;20037;-70
2022/10/02 07:36:01;;;;;;;5.10;3.00;;;;;;;;;;5031731;28;20313;-70
2022/10/02 07:38:42;;;;;;;7.20;5.35;;;;;;;;;;5031640;28;20024;-70
2022/10/02 07:41:11;;;;;;;19.98;11.02;;;;;;;;;;5031607;28;20033;-70
2022/10/02 07:43:56;;;;;;;11.50;7.35;;;;;;;;;;5032054;28;20032;-70
2022/10/02 07:46:41;;;;;;;9.60;5.90;;;;;;;;;;5031849;28;20026;-70
2022/10/02 07:49:17;;;;;;;12.23;6.43;;;;;;;;;;5031691;28;20033;-70
2022/10/02 07:51:52;;;;;;;12.45;6.47;;;;;;;;;;5031607;28;20033;-70
2022/10/02 07:54:32;;;;;;;9.45;5.57;;;;;;;;;;5031653;28;20025;-70
2022/10/02 07:57:03;;;;;;;7.72;4.25;;;;;;;;;;5031774;28;20029;-69
2022/10/02 07:59:30;;;;;;;5.88;3.50;;;;;;;;;;5031385;28;20025;-69
2022/10/02 08:01:57;;;;;;;4.13;2.42;;;;;;;;;;5031547;28;20028;-69
2022/10/02 08:04:28;;;;;;;5.18;3.35;;;;;;;;;;5031630;28;20022;-70
2022/10/02 08:07:00;;;;;;;4.45;2.35;;;;;;;;;;5031845;28;20030;-70
2022/10/02 08:09:38;;;;;;;5.78;2.85;;;;;;;;;;5031555;28;20032;-71
2022/10/02 08:12:04;;;;;;;3.67;2.00;;;;;;;;;;5031197;28;20401;-70
2022/10/02 08:14:40;;;;;;;2.78;1.83;;;;;;;;;;5031294;28;20049;-70
2022/10/02 08:17:18;;;;;;;5.72;2.00;;;;;;;;;;5031520;28;20075;-71
2022/10/02 08:19:48;;;;;;;6.13;3.90;;;;;;;;;;5031090;28;20029;-71
2022/10/02 08:22:15;;;;;;;3.50;3.03;;;;;;;;;;5033089;28;20029;-70
2022/10/02 08:24:53;;;;;;;4.32;2.22;;;;;;;;;;5034910;28;20048;-71
2022/10/02 08:27:22;;;;;;;4.93;2.10;;;;;;;;;;5034521;28;20091;-71
2022/10/02 08:29:56;;;;;;;0.90;0.90;;;;;;;;;;5035061;28;20032;-71
2022/10/02 08:32:26;;;;;;;1.63;1.27;;;;;;;;;;5035033;28;20043;-70
2022/10/02 08:34:53;;;;;;;1.50;1.40;;;;;;;;;;5035202;28;20033;-71
2022/10/02 08:37:23;;;;;;;1.75;0.90;;;;;;;;;;5034747;28;20044;-70
2022/10/02 08:40:01;;;;;;;3.22;0.73;;;;;;;;;;5034637;28;20032;-70
2022/10/02 08:42:36;;;;;;;7.93;2.75;;;;;;;;;;5034027;28;20051;-71
2022/10/02 08:45:14;;;;;;;2.75;1.45;;;;;;;;;;5034509;28;20397;-71
2022/10/02 08:47:56;;;;;;;0.80;0.60;;;;;;;;;;5034557;28;20037;-71
2022/10/02 08:50:31;;;;;;;0.93;0.60;;;;;;;;;;5034641;28;20025;-70
2022/10/02 08:53:17;;;;;;;3.22;0.70;;;;;;;;;;5034472;28;20052;-71
2022/10/02 08:55:46;;;;;;;1.05;0.77;;;;;;;;;;5033262;28;20025;-69
2022/10/02 08:58:27;;;;;;;1.03;0.77;;;;;;;;;;5034223;28;20025;-71
2022/10/02 09:01:09;;;;;;;0.63;0.50;;;;;;;;;;5034406;28;20028;-70
2022/10/02 09:03:54;;;;;;;0.40;0.40;;;;;;;;;;5034629;28;20028;-71
2022/10/02 09:06:39;;;;;;;1.95;0.45;;;;;;;;;;5034185;28;20029;-70
2022/10/02 09:09:24;;;;;;;2.05;0.50;;;;;;;;;;5034210;28;20386;-71
2022/10/02 09:12:10;;;;;;;0.43;0.38;;;;;;;;;;5033220;28;20037;-71
2022/10/02 09:14:36;;;;;;;1.08;0.60;;;;;;;;;;5034041;28;20289;-71
2022/10/02 09:17:21;;;;;;;0.52;0.50;;;;;;;;;;5034264;28;20018;-71
2022/10/02 09:19:54;;;;;;;0.65;0.52;;;;;;;;;;5033643;28;20024;-71
2022/10/02 09:22:26;;;;;;;8.18;0.80;;;;;;;;;;5034188;28;20037;-71
2022/10/02 09:25:08;;;;;;;0.60;0.57;;;;;;;;;;5034103;28;20028;-71
2022/10/02 09:27:43;;;;;;;2.83;0.75;;;;;;;;;;5033746;28;20030;-71
2022/10/02 09:30:25;;;;;;;2.90;0.63;;;;;;;;;;5048973;28;20091;-71
2022/10/02 09:33:07;;;;;;;2.22;0.63;;;;;;;;;;5033698;28;20377;-71
2022/10/02 09:35:33;;;;;;;1.58;0.60;;;;;;;;;;5033915;28;20029;-71
2022/10/02 09:38:19;;;;;;;2.80;0.50;;;;;;;;;;5033794;28;20017;-71
2022/10/02 09:40:53;;;;;;;2.60;0.73;;;;;;;;;;5033554;28;20026;-71
2022/10/02 09:43:20;;;;;;;0.75;0.40;;;;;;;;;;5033475;28;20025;-71
2022/10/02 09:45:47;;;;;;;1.15;0.50;;;;;;;;;;5033365;28;20513;-71
2022/10/02 09:48:39;;;;;;;1.90;0.70;;;;;;;;;;5033816;28;20035;-70
2022/10/02 09:51:25;;;;;;;1.95;0.50;;;;;;;;;;5031983;28;20049;-71
2022/10/02 09:54:22;;;;;;;1.00;0.40;;;;;;;;;;5033272;28;20094;-71
2022/10/02 09:57:00;;;;;;;2.15;0.60;;;;;;;;;;5033198;28;20018;-71
2022/10/02 09:59:27;;;;;;;3.50;0.60;;;;;;;;;;5033100;28;20025;-71
2022/10/02 10:02:04;;;;;;;1.63;0.52;;;;;;;;;;5033254;28;20022;-71
2022/10/02 10:04:49;;;;;;;0.77;0.55;;;;;;;;;;5033204;28;20417;-71
2022/10/02 10:07:19;;;;;;;0.60;0.47;;;;;;;;;;5031784;28;20040;-71
2022/10/02 10:09:51;;;;;;;0.67;0.37;;;;;;;;;;5032603;28;20022;-71
2022/10/02 10:12:36;;;;;;;2.35;0.50;;;;;;;;;;5033262;28;20052;-71
2022/10/02 10:15:02;;;;;;;0.40;0.40;;;;;;;;;;5033103;28;20022;-71
2022/10/02 10:17:47;;;;;;;0.90;0.55;;;;;;;;;;5033371;28;20032;-71
2022/10/02 10:20:13;;;;;;;0.95;0.50;;;;;;;;;;5033157;28;20021;-71
2022/10/02 10:22:51;;;;;;;2.35;0.50;;;;;;;;;;5032800;28;20036;-71
2022/10/02 10:25:35;;;;;;;0.65;0.50;;;;;;;;;;5032522;28;20043;-71
2022/10/02 10:28:13;;;;;;;0.77;0.45;;;;;;;;;;5032732;28;20487;-71
2022/10/02 10:31:01;;;;;;;0.68;0.47;;;;;;;;;;5032490;28;20041;-71
2022/10/02 10:33:28;;;;;;;1.88;0.68;;;;;;;;;;5032643;28;20018;-71
2022/10/02 10:35:58;;;;;;;2.83;0.50;;;;;;;;;;5032463;28;20029;-71
2022/10/02 10:38:51;;;;;;;1.38;0.60;;;;;;;;;;5032229;28;20014;-71
2022/10/02 10:41:20;;;;;;;3.33;0.60;;;;;;;;;;5032474;28;20021;-71
2022/10/02 10:43:58;;;;;;;2.72;0.63;;;;;;;;;;5032565;28;20102;-71
2022/10/02 10:46:34;;;;;;;0.50;0.40;;;;;;;;;;5032183;28;20021;-71
2022/10/02 10:49:03;;;;;;;1.85;0.40;;;;;;;;;;5032403;28;20067;-71
2022/10/02 10:51:39;;;;;;;0.93;0.50;;;;;;;;;;5032292;28;20039;-71
2022/10/02 10:54:24;;;;;;;0.65;0.30;;;;;;;;;;5031926;28;20030;-71
2022/10/02 10:56:59;;;;;;;1.23;0.40;;;;;;;;;;5029585;28;20029;-71
2022/10/02 10:59:26;;;;;;;7.30;0.47;;;;;;;;;;5032024;28;20025;-71
2022/10/02 11:02:01;;;;;;;3.60;0.40;;;;;;;;;;5032017;28;20086;-71
2022/10/02 11:04:30;;;;;;;3.72;0.40;;;;;;;;;;5032145;28;20030;-71
2022/10/02 11:07:06;;;;;;;1.27;0.38;;;;;;;;;;5032000;28;20028;-71
2022/10/02 11:09:33;;;;;;;4.20;0.50;;;;;;;;;;5032227;28;20486;-71
2022/10/02 11:12:02;;;;;;;5.75;0.40;;;;;;;;;;5030563;28;20461;-71
2022/10/02 11:14:42;;;;;;;1.08;0.50;;;;;;;;;;5032061;28;20494;-71
2022/10/02 11:17:17;;;;;;;0.40;0.40;;;;;;;;;;5031986;28;20036;-70
2022/10/02 11:19:49;;;;;;;1.23;0.38;;;;;;;;;;5031876;28;20044;-71
2022/10/02 11:22:15;;;;;;;0.70;0.30;;;;;;;;;;5031616;28;20022;-70
2022/10/02 11:24:42;;;;;;;3.17;0.40;;;;;;;;;;5031976;28;20029;-71
2022/10/02 11:27:20;;;;;;;0.35;0.30;;;;;;;;;;5032143;28;20037;-71
2022/10/02 11:29:56;;;;;;;1.35;0.60;;;;;;;;;;5047431;28;20044;-71
2022/10/02 11:32:25;;;;;;;0.98;0.50;;;;;;;;;;5031942;28;20022;-71
2022/10/02 11:35:10;;;;;;;1.83;0.57;;;;;;;;;;5032017;28;20397;-71
2022/10/02 11:37:48;;;;;;;0.20;0.20;;;;;;;;;;5031604;28;20029;-71
2022/10/02 11:40:31;;;;;;;2.22;0.40;;;;;;;;;;5031714;28;20404;-71
2022/10/02 11:42:57;;;;;;;0.57;0.50;;;;;;;;;;5031832;28;20029;-71
2022/10/02 11:45:42;;;;;;;1.95;0.40;;;;;;;;;;5031638;28;20025;-71
2022/10/02 11:48:08;;;;;;;0.60;0.40;;;;;;;;;;5031755;28;20389;-71
2022/10/02 11:50:53;;;;;;;0.28;0.20;;;;;;;;;;5031414;28;20034;-71
2022/10/02 11:53:20;;;;;;;0.52;0.40;;;;;;;;;;5031693;28;20402;-71
2022/10/02 11:55:49;;;;;;;1.42;0.30;;;;;;;;;;5031525;28;20026;-71
2022/10/02 11:58:32;;;;;;;0.32;0.32;;;;;;;;;;5034820;28;20075;-71
2022/10/02 12:01:17;;;;;;;2.20;0.30;;;;;;;;;;5035783;28;20023;-71
2022/10/02 12:03:46;;;;;;;0.30;0.30;;;;;;;;;;5035485;28;20391;-71
2022/10/02 12:06:18;;;;;;;0.55;0.40;;;;;;;;;;5033981;28;20013;-71
2022/10/02 12:08:45;;;;;;;0.80;0.47;;;;;;;;;;5035296;28;20026;-71
2022/10/02 12:11:14;;;;;;;0.63;0.52;;;;;;;;;;5035041;28;20033;-71
2022/10/02 12:13:41;;;;;;;2.83;0.70;;;;;;;;;;5035104;28;20052;-71
2022/10/02 12:16:22;;;;;;;0.55;0.50;;;;;;;;;;5035239;28;20036;-71
2022/10/02 12:18:55;;;;;;;7.63;0.60;;;;;;;;;;5035170;28;20031;-71
2022/10/02 12:27:35;;;;;;;0.68;0.50;;;;;;;;;;5035075;28;20320;-72
2022/10/02 12:30:06;;;;;;;0.47;0.40;;;;;;;;;;5030228;28;20034;-72
2022/10/02 12:32:51;;;;;;;0.60;0.50;;;;;;;;;;5034894;28;20516;-71
2022/10/02 12:35:36;;;;;;;0.55;0.50;;;;;;;;;;5034469;28;20025;-71
2022/10/02 12:38:09;;;;;;;1.92;0.90;;;;;;;;;;5050213;28;20025;-71
2022/10/02 12:40:40;;;;;;;1.98;0.50;;;;;;;;;;5034561;28;20403;-72
2022/10/02 12:43:29;;;;;;;3.92;0.70;;;;;;;;;;5035036;28;20026;-72
2022/10/02 12:46:04;;;;;;;1.75;0.65;;;;;;;;;;5034132;28;20029;-71
2022/10/02 12:48:43;;;;;;;0.93;0.60;;;;;;;;;;5034238;28;20518;-72
2022/10/02 12:51:48;;;;;;;0.50;0.50;;;;;;;;;;5034503;28;20063;-71
2022/10/02 12:54:53;;;;;;;2.92;0.80;;;;;;;;;;5012756;28;20029;-71
2022/10/02 13:00:15;;;;;;;0.85;0.60;;;;;;;;;;4953955;29;20460;-70
2022/10/02 13:03:01;;;;;;;1.95;0.70;;;;;;;;;;4954079;29;20496;-71
2022/10/02 13:05:28;;;;;;;0.88;0.50;;;;;;;;;;4954056;29;20041;-71
2022/10/02 13:08:04;;;;;;;0.50;0.50;;;;;;;;;;4953382;28;20053;-71
2022/10/02 13:10:39;;;;;;;0.50;0.50;;;;;;;;;;4953951;29;20159;-72
2022/10/02 13:13:05;;;;;;;1.15;0.50;;;;;;;;;;4953717;29;20516;-71
2022/10/02 13:15:47;;;;;;;1.17;0.68;;;;;;;;;;4954027;29;20050;-72
2022/10/02 13:18:16;;;;;;;1.00;0.70;;;;;;;;;;4953491;29;20049;-71
2022/10/02 13:20:52;;;;;;;1.33;0.55;;;;;;;;;;4953327;29;20035;-71
2022/10/02 13:23:19;;;;;;;0.73;0.50;;;;;;;;;;4953748;29;20019;-71
2022/10/02 13:25:53;;;;;;;1.55;0.40;;;;;;;;;;4953737;29;20043;-71
2022/10/02 13:28:46;;;;;;;0.40;0.40;;;;;;;;;;5002106;28;20038;-71
2022/10/02 13:31:15;;;;;;;3.33;0.95;;;;;;;;;;5032021;28;20501;-71
2022/10/02 13:33:41;;;;;;;;;;;;;;;;;;5033825;28;20036;-72
2022/10/02 13:36:30;;;;;;;0.90;0.55;;;;;;;;;;5033740;28;19909;-72
2022/10/02 13:39:09;;;;;;;1.17;0.52;;;;;;;;;;5033708;28;20028;-71
2022/10/02 13:41:54;;;;;;;1.00;0.63;;;;;;;;;;5033846;28;20029;-72
2022/10/02 13:44:29;;;;;;;1.10;0.60;;;;;;;;;;5033388;28;20026;-71
2022/10/02 13:47:15;;;;;;;1.60;0.50;;;;;;;;;;5033503;28;20024;-71
2022/10/02 13:49:52;;;;;;;1.58;0.40;;;;;;;;;;5011403;28;20445;-72
2022/10/02 13:52:31;;;;;;;1.23;0.50;;;;;;;;;;5011612;28;20041;-71
2022/10/02 13:55:03;;;;;;;0.70;0.55;;;;;;;;;;5011682;28;20034;-71
2022/10/02 13:57:46;;;;;;;1.35;0.40;;;;;;;;;;5011324;28;20542;-71
2022/10/02 14:00:21;;;;;;;1.65;0.60;;;;;;;;;;5011808;28;20030;-72
2022/10/02 14:02:50;;;;;;;0.77;0.50;;;;;;;;;;5011136;28;20049;-72
2022/10/02 14:05:19;;;;;;;0.73;0.40;;;;;;;;;;4994891;28;20026;-71
2022/10/02 14:07:54;;;;;;;0.70;0.45;;;;;;;;;;5011271;28;20283;-72
2022/10/02 14:10:29;;;;;;;2.05;0.55;;;;;;;;;;5011330;28;20033;-71
2022/10/02 14:12:56;;;;;;;0.50;0.50;;;;;;;;;;5010815;28;20060;-72
2022/10/02 14:15:43;;;;;;;0.77;0.60;;;;;;;;;;5011192;28;20040;-71
2022/10/02 14:18:18;;;;;;;0.75;0.50;;;;;;;;;;5010980;28;20025;-72
2022/10/02 14:20:51;;;;;;;2.65;0.70;;;;;;;;;;5009967;28;20034;-71
2022/10/02 14:23:29;;;;;;;0.68;0.40;;;;;;;;;;5011197;28;20337;-72
2022/10/02 14:26:09;;;;;;;1.92;0.35;;;;;;;;;;5013913;28;20033;-71
2022/10/02 14:28:35;;;;;;;;;;;;;;;;;;5033133;28;20033;-71
2022/10/02 14:31:07;;;;;;;1.75;0.50;;;;;;;;;;5032365;28;19912;-71
2022/10/02 14:33:51;;;;;;;0.88;0.40;;;;;;;;;;5032556;28;20504;-72
2022/10/02 14:36:21;;;;;;;6.45;0.40;;;;;;;;;;5032622;28;20036;-71
2022/10/02 14:39:06;;;;;;;0.50;0.50;;;;;;;;;;5032909;28;20018;-71
2022/10/02 14:41:41;;;;;;;1.60;0.57;;;;;;;;;;5032238;28;20018;-71
2022/10/02 14:44:34;;;;;;;4.70;0.40;;;;;;;;;;5032396;28;20486;-70
2022/10/02 14:47:16;;;;;;;2.22;0.60;;;;;;;;;;5010444;28;20048;-71
2022/10/02 14:49:42;;;;;;;1.60;0.60;;;;;;;;;;5010337;28;20034;-71
2022/10/02 14:52:27;;;;;;;2.10;0.50;;;;;;;;;;5010378;28;20050;-71
2022/10/02 14:55:05;;;;;;;0.82;0.43;;;;;;;;;;5010442;28;20469;-71
2022/10/02 14:57:43;;;;;;;1.38;0.50;;;;;;;;;;5010358;28;20048;-70
2022/10/02 15:00:17;;;;;;;1.73;0.55;;;;;;;;;;5009855;28;20043;-71
2022/10/02 15:02:49;;;;;;;0.93;0.40;;;;;;;;;;5010014;28;20502;-71
2022/10/02 15:05:38;;;;;;;1.92;0.40;;;;;;;;;;4993848;28;20503;-71
2022/10/02 15:08:11;;;;;;;2.05;1.50;;;;;;;;;;5010286;28;20052;-71
2022/10/02 15:10:38;;;;;;;3.83;0.85;;;;;;;;;;5010054;28;20042;-71
2022/10/02 15:13:07;;;;;;;0.98;0.60;;;;;;;;;;5009963;28;20049;-71
2022/10/02 15:15:36;;;;;;;2.08;0.60;;;;;;;;;;5010112;28;20044;-71
2022/10/02 15:18:20;;;;;;;4.80;0.60;;;;;;;;;;5010060;28;20491;-71
2022/10/02 15:20:59;;;;;;;0.88;0.50;;;;;;;;;;5010091;28;20041;-71
2022/10/02 15:23:42;;;;;;;0.60;0.60;;;;;;;;;;5017555;28;20040;-71
2022/10/02 15:26:27;;;;;;;2.03;0.95;;;;;;;;;;5032247;28;20040;-71
2022/10/02 15:29:01;;;;;;;1.17;0.50;;;;;;;;;;5031631;28;20024;-71
2022/10/02 15:31:46;;;;;;;1.05;0.50;;;;;;;;;;5033843;28;20041;-71
2022/10/02 15:34:15;;;;;;;1.27;0.60;;;;;;;;;;5035995;28;20025;-71
2022/10/02 15:36:53;;;;;;;2.28;0.90;;;;;;;;;;5035788;28;20067;-71